createdAt,value
2018-12-17T05:00:35.126Z,91.18
2018-12-17T05:01:35.103Z,90.97
2018-12-17T05:02:35.095Z,90.66
2018-12-17T05:03:35.103Z,90.03
2018-12-17T05:04:35.085Z,90.03
2018-12-17T05:05:35.063Z,90.25
2018-12-17T05:06:35.049Z,89.93
2018-12-17T05:07:35.042Z,90.14
2018-12-17T05:08:35.039Z,90.35
2018-12-17T05:09:35.024Z,89.93
2018-12-17T05:10:35.010Z,89.93
2018-12-17T05:11:34.995Z,90.35
2018-12-17T05:12:34.984Z,90.77
2018-12-17T05:13:35.000Z,91.18
2018-12-17T05:14:34.959Z,91.02
2018-12-17T05:15:34.963Z,90.77
2018-12-17T05:16:34.943Z,91.02
2018-12-17T05:17:34.929Z,91.22
2018-12-17T05:18:34.936Z,91.43
2018-12-17T05:19:34.907Z,91.12
2018-12-17T05:20:34.898Z,91.85
2018-12-17T05:21:34.886Z,92.06
2018-12-17T05:22:34.870Z,91.85
2018-12-17T05:23:34.875Z,91.79
2018-12-17T05:24:34.853Z,91.64
2018-12-17T05:25:34.843Z,91.85
2018-12-17T05:26:34.832Z,92.00
2018-12-17T05:27:34.821Z,92.06
2018-12-17T05:28:34.823Z,92.47
2018-12-17T05:29:34.799Z,92.27
2018-12-17T05:30:34.857Z,92.63
2018-12-17T05:31:34.775Z,92.69
2018-12-17T05:32:34.765Z,92.58
2018-12-17T05:33:34.765Z,92.52
2018-12-17T05:34:34.742Z,92.52
2018-12-17T05:35:34.732Z,93.04
2018-12-17T05:36:34.719Z,92.63
2018-12-17T05:37:34.709Z,92.83
2018-12-17T05:38:34.712Z,93.04
2018-12-17T05:39:34.681Z,93.04
2018-12-17T05:40:34.674Z,93.04
2018-12-17T05:41:34.669Z,93.15
2018-12-17T05:42:34.651Z,93.04
2018-12-17T05:43:34.656Z,93.04
2018-12-17T05:44:34.630Z,93.04
2018-12-17T05:45:34.622Z,92.94
2018-12-17T05:46:34.615Z,92.79
2018-12-17T05:47:34.598Z,93.10
2018-12-17T05:48:34.597Z,92.79
2018-12-17T05:49:34.580Z,92.83
2018-12-17T05:50:34.565Z,92.79
2018-12-17T05:51:34.554Z,93.00
2018-12-17T05:52:34.547Z,93.00
2018-12-17T05:53:34.568Z,92.37
2018-12-17T05:54:34.518Z,92.58
2018-12-17T05:55:34.527Z,92.90
2018-12-17T05:56:34.498Z,92.69
2018-12-17T05:57:34.484Z,92.22
2018-12-17T05:58:34.478Z,92.27
2018-12-17T05:59:34.516Z,92.44
2018-12-17T06:00:34.471Z,91.81
2018-12-17T06:01:34.500Z,91.91
2018-12-17T06:02:34.458Z,91.71
2018-12-17T06:03:36.093Z,91.81
2018-12-17T06:04:34.420Z,91.60
2018-12-17T06:05:34.398Z,90.87
2018-12-17T06:06:34.385Z,90.97
2018-12-17T06:07:34.376Z,90.77
2018-12-17T06:08:34.363Z,90.83
2018-12-17T06:09:34.365Z,91.08
2018-12-17T06:10:34.345Z,90.93
2018-12-17T06:11:34.332Z,91.04
2018-12-17T06:12:34.397Z,91.08
2018-12-17T06:13:34.307Z,91.18
2018-12-17T06:14:34.318Z,90.72
2018-12-17T06:15:34.288Z,90.56
2018-12-17T06:16:34.279Z,90.66
2018-12-17T06:17:34.265Z,90.87
2018-12-17T06:18:34.259Z,90.77
2018-12-17T06:19:34.263Z,90.87
2018-12-17T06:20:34.232Z,90.66
2018-12-17T06:21:34.222Z,91.18
2018-12-17T06:22:34.210Z,90.97
2018-12-17T06:23:34.198Z,91.18
2018-12-17T06:24:34.199Z,91.18
2018-12-17T06:25:34.189Z,90.87
2018-12-17T06:26:34.163Z,91.22
2018-12-17T06:27:36.848Z,91.22
2018-12-17T06:28:34.147Z,91.12
2018-12-17T06:29:35.627Z,91.22
2018-12-17T06:30:34.122Z,91.12
2018-12-17T06:31:34.109Z,90.81
2018-12-17T06:32:34.099Z,91.02
2018-12-17T06:33:34.089Z,91.02
2018-12-17T06:34:34.086Z,90.91
2018-12-17T06:35:34.067Z,91.22
2018-12-17T06:36:34.059Z,91.75
2018-12-17T06:37:34.043Z,91.75
2018-12-17T06:38:34.035Z,91.64
2018-12-17T06:39:34.038Z,91.85
2018-12-17T06:40:34.009Z,91.64
2018-12-17T06:41:34.001Z,91.33
2018-12-17T06:42:33.992Z,91.79
2018-12-17T06:43:33.976Z,90.95
2018-12-17T06:44:33.981Z,91.58
2018-12-17T06:45:33.953Z,91.69
2018-12-17T06:46:33.943Z,91.69
2018-12-17T06:47:33.931Z,91.69
2018-12-17T06:48:33.920Z,91.47
2018-12-17T06:49:33.935Z,91.27
2018-12-17T06:50:33.896Z,91.89
2018-12-17T06:51:33.892Z,92.37
2018-12-17T06:52:33.874Z,91.75
2018-12-17T06:53:33.862Z,92.16
2018-12-17T06:54:33.867Z,91.75
2018-12-17T06:55:33.853Z,91.54
2018-12-17T06:56:33.835Z,91.54
2018-12-17T06:57:33.821Z,92.69
2018-12-17T06:58:33.809Z,92.69
2018-12-17T06:59:33.810Z,92.12
2018-12-17T07:00:33.783Z,91.81
2018-12-17T07:01:33.776Z,91.81
2018-12-17T07:02:33.764Z,91.39
2018-12-17T07:03:33.774Z,91.71
2018-12-17T07:04:33.753Z,91.81
2018-12-17T07:05:33.732Z,91.91
2018-12-17T07:06:33.719Z,91.66
2018-12-17T07:07:33.708Z,91.87
2018-12-17T07:08:33.695Z,91.71
2018-12-17T07:09:33.698Z,91.35
2018-12-17T07:10:33.674Z,91.77
2018-12-17T07:11:33.665Z,91.77
2018-12-17T07:12:33.659Z,91.66
2018-12-17T07:13:33.643Z,91.56
2018-12-17T07:14:36.680Z,91.35
2018-12-17T07:15:33.619Z,91.52
2018-12-17T07:16:33.609Z,91.62
2018-12-17T07:17:33.637Z,91.10
2018-12-17T07:18:33.587Z,91.62
2018-12-17T07:19:33.588Z,90.79
2018-12-17T07:20:33.569Z,90.79
2018-12-17T07:21:33.552Z,90.89
2018-12-17T07:22:33.541Z,91.10
2018-12-17T07:23:33.530Z,90.89
2018-12-17T07:24:33.534Z,90.75
2018-12-17T07:25:33.526Z,91.31
2018-12-17T07:26:33.496Z,90.85
2018-12-17T07:27:33.485Z,90.89
2018-12-17T07:28:33.473Z,90.95
2018-12-17T07:29:33.476Z,91.06
2018-12-17T07:30:33.451Z,91.06
2018-12-17T07:31:33.441Z,90.95
2018-12-17T07:32:33.432Z,90.60
2018-12-17T07:33:33.420Z,89.45
2018-12-17T07:34:33.421Z,88.68
2018-12-17T07:35:33.399Z,88.68
2018-12-17T07:36:33.388Z,89.04
2018-12-17T07:37:33.375Z,89.10
2018-12-17T07:38:33.365Z,88.27
2018-12-17T07:39:33.367Z,89.20
2018-12-17T07:40:33.343Z,88.93
2018-12-17T07:41:33.331Z,89.14
2018-12-17T07:42:33.319Z,89.25
2018-12-17T07:43:33.307Z,88.73
2018-12-17T07:44:33.312Z,88.73
2018-12-17T07:45:33.285Z,88.83
2018-12-17T07:46:33.276Z,89.35
2018-12-17T07:47:33.266Z,89.87
2018-12-17T07:48:33.255Z,89.66
2018-12-17T07:49:33.254Z,90.08
2018-12-17T07:50:33.232Z,90.08
2018-12-17T07:51:33.221Z,90.08
2018-12-17T07:52:33.218Z,89.91
2018-12-17T07:53:33.198Z,91.37
2018-12-17T07:54:33.192Z,91.16
2018-12-17T07:55:33.175Z,90.50
2018-12-17T07:56:33.169Z,90.75
2018-12-17T07:57:33.153Z,90.85
2018-12-17T07:58:33.142Z,90.81
2018-12-17T07:59:33.142Z,90.85
2018-12-17T08:00:33.119Z,90.75
2018-12-17T08:01:33.104Z,91.22
2018-12-17T08:02:33.100Z,91.78
2018-12-17T08:03:33.084Z,90.64
2018-12-17T08:04:33.113Z,90.64
2018-12-17T08:05:33.058Z,91.53
2018-12-17T08:06:33.053Z,91.58
2018-12-17T08:07:33.043Z,90.75
2018-12-17T08:08:35.591Z,90.91
2018-12-17T08:09:33.025Z,90.85
2018-12-17T08:10:33.021Z,90.91
2018-12-17T08:11:33.006Z,90.91
2018-12-17T08:12:32.987Z,90.81
2018-12-17T08:13:32.976Z,90.75
2018-12-17T08:14:32.968Z,90.70
2018-12-17T08:15:32.965Z,90.81
2018-12-17T08:16:32.940Z,90.81
2018-12-17T08:17:32.931Z,91.02
2018-12-17T08:18:32.925Z,90.91
2018-12-17T08:19:32.908Z,90.60
2018-12-17T08:20:32.917Z,90.25
2018-12-17T08:21:32.884Z,90.29
2018-12-17T08:22:32.873Z,90.29
2018-12-17T08:23:32.862Z,90.39
2018-12-17T08:24:32.853Z,90.29
2018-12-17T08:25:32.860Z,91.02
2018-12-17T08:26:32.828Z,91.33
2018-12-17T08:27:32.829Z,89.94
2018-12-17T08:28:32.817Z,90.04
2018-12-17T08:29:32.798Z,90.04
2018-12-17T08:30:32.799Z,89.83
2018-12-17T08:31:32.775Z,90.14
2018-12-17T08:32:32.764Z,89.94
2018-12-17T08:33:32.754Z,89.83
2018-12-17T08:34:32.743Z,89.73
2018-12-17T08:35:32.742Z,90.00
2018-12-17T08:36:32.715Z,90.00
2018-12-17T08:37:32.707Z,90.00
2018-12-17T08:38:32.697Z,89.48
2018-12-17T08:39:32.685Z,88.85
2018-12-17T08:40:32.686Z,89.06
2018-12-17T08:41:32.667Z,89.06
2018-12-17T08:42:32.669Z,89.17
2018-12-17T08:43:32.638Z,89.48
2018-12-17T08:44:32.628Z,89.95
2018-12-17T08:45:32.635Z,89.33
2018-12-17T08:46:32.611Z,88.71
2018-12-17T08:47:32.593Z,89.02
2018-12-17T08:48:32.586Z,89.02
2018-12-17T08:49:32.574Z,88.60
2018-12-17T08:50:32.612Z,88.60
2018-12-17T08:51:32.551Z,88.67
2018-12-17T08:52:32.540Z,89.18
2018-12-17T08:53:32.531Z,88.81
2018-12-17T08:54:32.521Z,88.46
2018-12-17T08:55:32.518Z,88.25
2018-12-17T08:56:32.495Z,88.35
2018-12-17T08:57:37.939Z,87.84
2018-12-17T08:58:33.470Z,88.21
2018-12-17T08:59:32.462Z,88.21
2018-12-17T09:00:32.462Z,87.38
2018-12-17T09:01:32.439Z,87.52
2018-12-17T09:02:32.429Z,88.21
2018-12-17T09:03:32.419Z,87.69
2018-12-17T09:04:32.406Z,87.84
2018-12-17T09:05:32.416Z,87.63
2018-12-17T09:06:32.389Z,87.84
2018-12-17T09:07:32.372Z,87.94
2018-12-17T09:08:32.359Z,87.79
2018-12-17T09:09:32.351Z,88.15
2018-12-17T09:10:32.349Z,88.04
2018-12-17T09:11:32.327Z,87.79
2018-12-17T09:12:32.317Z,87.59
2018-12-17T09:13:32.304Z,88.00
2018-12-17T09:14:32.296Z,88.00
2018-12-17T09:15:32.292Z,88.10
2018-12-17T09:16:32.269Z,87.79
2018-12-17T09:17:32.259Z,87.76
2018-12-17T09:18:32.248Z,87.24
2018-12-17T09:19:32.235Z,87.09
2018-12-17T09:20:32.239Z,86.68
2018-12-17T09:21:32.220Z,85.91
2018-12-17T09:22:32.202Z,85.91
2018-12-17T09:23:32.193Z,86.43
2018-12-17T09:24:32.179Z,86.12
2018-12-17T09:25:32.186Z,85.91
2018-12-17T09:26:32.159Z,85.19
2018-12-17T09:27:32.147Z,85.19
2018-12-17T09:28:32.133Z,85.08
2018-12-17T09:29:32.141Z,85.39
2018-12-17T09:30:32.126Z,84.77
2018-12-17T09:31:32.101Z,84.11
2018-12-17T09:32:32.088Z,84.52
2018-12-17T09:33:32.080Z,84.00
2018-12-17T09:34:32.068Z,84.31
2018-12-17T09:35:32.065Z,84.42
2018-12-17T09:36:32.037Z,84.11
2018-12-17T09:37:32.031Z,84.52
2018-12-17T09:38:32.021Z,84.94
2018-12-17T09:39:32.012Z,84.42
2018-12-17T09:40:32.015Z,84.31
2018-12-17T09:41:31.986Z,84.73
2018-12-17T09:42:31.967Z,84.63
2018-12-17T09:43:31.963Z,84.31
2018-12-17T09:44:31.953Z,83.90
2018-12-17T09:45:31.956Z,84.42
2018-12-17T09:46:31.929Z,84.00
2018-12-17T09:47:31.918Z,83.38
2018-12-17T09:48:31.910Z,84.00
2018-12-17T09:49:31.899Z,85.04
2018-12-17T09:50:31.896Z,84.31
2018-12-17T09:51:31.877Z,84.42
2018-12-17T09:52:31.866Z,83.69
2018-12-17T09:53:31.857Z,84.28
2018-12-17T09:54:31.845Z,84.07
2018-12-17T09:55:31.843Z,83.14
2018-12-17T09:56:31.815Z,82.82
2018-12-17T09:57:31.806Z,83.14
2018-12-17T09:58:31.794Z,83.86
2018-12-17T09:59:31.795Z,82.31
2018-12-17T10:00:31.791Z,82.45
2018-12-17T10:01:31.763Z,82.82
2018-12-17T10:02:31.752Z,83.34
2018-12-17T10:03:31.737Z,83.24
2018-12-17T10:04:31.726Z,82.51
2018-12-17T10:05:31.726Z,82.82
2018-12-17T10:06:31.703Z,82.20
2018-12-17T10:07:31.691Z,82.72
2018-12-17T10:08:31.682Z,82.58
2018-12-17T10:09:31.677Z,82.27
2018-12-17T10:10:31.769Z,82.58
2018-12-17T10:11:31.695Z,82.58
2018-12-17T10:12:31.635Z,82.27
2018-12-17T10:13:31.624Z,82.58
2018-12-17T10:14:31.613Z,82.27
2018-12-17T10:15:31.603Z,82.58
2018-12-17T10:16:31.601Z,82.68
2018-12-17T10:17:31.578Z,82.58
2018-12-17T10:18:36.843Z,82.17
2018-12-17T10:19:32.551Z,82.37
2018-12-17T10:20:31.545Z,81.85
2018-12-17T10:21:31.545Z,83.00
2018-12-17T10:22:31.522Z,82.58
2018-12-17T10:23:31.510Z,82.48
2018-12-17T10:24:31.499Z,81.54
2018-12-17T10:25:31.487Z,81.75
2018-12-17T10:26:31.489Z,81.92
2018-12-17T10:27:31.467Z,81.51
2018-12-17T10:28:31.464Z,81.30
2018-12-17T10:29:31.444Z,81.51
2018-12-17T10:30:32.723Z,81.40
2018-12-17T10:31:31.434Z,81.40
2018-12-17T10:32:31.408Z,81.40
2018-12-17T10:33:31.400Z,81.30
2018-12-17T10:34:31.388Z,81.34
2018-12-17T10:35:31.376Z,81.92
2018-12-17T10:36:31.380Z,81.40
2018-12-17T10:37:31.352Z,81.20
2018-12-17T10:38:31.343Z,81.09
2018-12-17T10:39:31.331Z,81.82
2018-12-17T10:40:31.318Z,81.40
2018-12-17T10:41:31.329Z,81.61
2018-12-17T10:42:31.295Z,81.40
2018-12-17T10:43:31.284Z,82.03
2018-12-17T10:44:31.277Z,81.51
2018-12-17T10:45:31.277Z,81.92
2018-12-17T10:46:31.258Z,82.23
2018-12-17T10:47:31.243Z,81.92
2018-12-17T10:48:31.227Z,82.23
2018-12-17T10:49:31.218Z,81.82
2018-12-17T10:50:31.209Z,81.40
2018-12-17T10:51:31.200Z,81.71
2018-12-17T10:52:31.184Z,82.54
2018-12-17T10:53:31.170Z,82.86
2018-12-17T10:54:31.155Z,82.65
2018-12-17T10:55:31.147Z,82.44
2018-12-17T10:56:31.145Z,82.65
2018-12-17T10:57:31.126Z,81.51
2018-12-17T10:58:31.110Z,81.40
2018-12-17T10:59:31.103Z,81.61
2018-12-17T11:00:31.091Z,81.92
2018-12-17T11:01:32.516Z,81.88
2018-12-17T11:02:31.065Z,81.82
2018-12-17T11:03:31.057Z,82.44
2018-12-17T11:04:31.108Z,82.86
2018-12-17T11:05:31.071Z,82.65
2018-12-17T11:06:33.029Z,82.50
2018-12-17T11:07:33.092Z,82.54
2018-12-17T11:08:31.130Z,82.50
2018-12-17T11:09:34.380Z,82.71
2018-12-17T11:10:30.974Z,82.50
2018-12-17T11:11:30.978Z,81.78
2018-12-17T11:12:30.953Z,81.99
2018-12-17T11:13:31.096Z,81.88
2018-12-17T11:14:30.933Z,81.68
2018-12-17T11:15:30.920Z,81.78
2018-12-17T11:16:30.922Z,82.09
2018-12-17T11:17:30.895Z,82.03
2018-12-17T11:18:30.886Z,81.37
2018-12-17T11:19:30.873Z,81.78
2018-12-17T11:20:30.861Z,81.47
2018-12-17T11:21:30.862Z,82.09
2018-12-17T11:22:30.835Z,81.68
2018-12-17T11:23:30.854Z,81.88
2018-12-17T11:24:30.817Z,81.57
2018-12-17T11:25:30.813Z,81.78
2018-12-17T11:26:30.810Z,81.99
2018-12-17T11:27:30.779Z,81.57
2018-12-17T11:28:30.776Z,81.68
2018-12-17T11:29:30.764Z,81.47
2018-12-17T11:30:30.753Z,81.95
2018-12-17T11:31:30.753Z,81.26
2018-12-17T11:32:30.733Z,81.47
2018-12-17T11:33:30.715Z,82.09
2018-12-17T11:34:30.704Z,82.09
2018-12-17T11:35:30.692Z,82.09
2018-12-17T11:36:32.358Z,81.57
2018-12-17T11:37:32.769Z,81.33
2018-12-17T11:38:31.989Z,81.43
2018-12-17T11:39:32.915Z,81.33
2018-12-17T11:40:30.639Z,81.47
2018-12-17T11:41:31.188Z,81.47
2018-12-17T11:42:30.619Z,81.33
2018-12-17T11:43:30.601Z,81.54
2018-12-17T11:44:30.587Z,81.23
2018-12-17T11:45:30.610Z,81.23
2018-12-17T11:46:30.578Z,81.12
2018-12-17T11:47:30.555Z,81.43
2018-12-17T11:48:30.549Z,81.23
2018-12-17T11:49:30.547Z,80.81
2018-12-17T11:50:30.547Z,81.23
2018-12-17T11:51:30.527Z,81.02
2018-12-17T11:52:30.499Z,81.54
2018-12-17T11:53:30.493Z,81.64
2018-12-17T11:54:30.478Z,80.91
2018-12-17T11:55:30.669Z,81.23
2018-12-17T11:56:32.346Z,81.74
2018-12-17T11:57:30.447Z,81.64
2018-12-17T11:58:30.431Z,81.12
2018-12-17T11:59:30.420Z,81.43
2018-12-17T12:00:34.139Z,81.43
2018-12-17T12:01:30.733Z,81.54
2018-12-17T12:02:30.388Z,81.74
2018-12-17T12:03:30.376Z,81.74
2018-12-17T12:04:30.365Z,81.43
2018-12-17T12:05:30.353Z,81.23
2018-12-17T12:06:30.352Z,81.64
2018-12-17T12:07:30.329Z,82.36
2018-12-17T12:08:30.324Z,82.29
2018-12-17T12:09:30.307Z,82.50
2018-12-17T12:10:30.296Z,82.29
2018-12-17T12:11:30.301Z,82.57
2018-12-17T12:12:30.267Z,82.26
2018-12-17T12:13:30.262Z,82.05
2018-12-17T12:14:30.255Z,82.46
2018-12-17T12:15:30.240Z,82.36
2018-12-17T12:16:30.272Z,82.15
2018-12-17T12:17:30.218Z,82.05
2018-12-17T12:18:30.206Z,82.46
2018-12-17T12:19:30.194Z,82.26
2018-12-17T12:20:30.183Z,82.46
2018-12-17T12:21:30.173Z,82.50
2018-12-17T12:22:30.177Z,82.81
2018-12-17T12:23:30.149Z,82.67
2018-12-17T12:24:30.139Z,82.88
2018-12-17T12:25:30.180Z,83.09
2018-12-17T12:26:30.116Z,82.50
2018-12-17T12:27:30.115Z,82.81
2018-12-17T12:28:30.094Z,82.98
2018-12-17T12:29:30.080Z,83.12
2018-12-17T12:30:30.077Z,82.50
2018-12-17T12:31:30.058Z,82.78
2018-12-17T12:32:32.200Z,83.02
2018-12-17T12:33:30.037Z,82.88
2018-12-17T12:34:30.020Z,82.78
2018-12-17T12:35:30.014Z,82.88
2018-12-17T12:36:30.002Z,82.78
2018-12-17T12:37:30.003Z,82.98
2018-12-17T12:38:29.980Z,82.88
2018-12-17T12:39:29.969Z,82.98
2018-12-17T12:40:29.957Z,82.98
2018-12-17T12:41:31.996Z,82.98
2018-12-17T12:42:30.048Z,83.09
2018-12-17T12:43:29.924Z,83.19
2018-12-17T12:44:29.914Z,83.40
2018-12-17T12:45:29.903Z,83.44
2018-12-17T12:46:29.903Z,83.44
2018-12-17T12:47:29.886Z,83.12
2018-12-17T12:48:29.863Z,84.06
2018-12-17T12:49:29.852Z,84.16
2018-12-17T12:50:29.840Z,84.06
2018-12-17T12:51:32.690Z,83.91
2018-12-17T12:52:29.828Z,84.43
2018-12-17T12:53:32.100Z,84.43
2018-12-17T12:54:29.795Z,84.78
2018-12-17T12:55:29.789Z,84.88
2018-12-17T12:56:29.772Z,85.50
2018-12-17T12:57:29.776Z,85.50
2018-12-17T12:58:29.767Z,85.40
2018-12-17T12:59:29.748Z,86.23
2018-12-17T13:00:29.726Z,86.13
2018-12-17T13:01:29.716Z,86.02
2018-12-17T13:02:29.718Z,86.02
2018-12-17T13:03:29.694Z,86.17
2018-12-17T13:04:29.680Z,86.23
2018-12-17T13:05:29.662Z,85.40
2018-12-17T13:06:29.659Z,85.92
2018-12-17T13:07:29.661Z,85.82
2018-12-17T13:08:29.623Z,86.13
2018-12-17T13:09:29.623Z,85.82
2018-12-17T13:10:29.616Z,85.92
2018-12-17T13:11:29.593Z,86.27
2018-12-17T13:12:29.635Z,86.47
2018-12-17T13:13:29.578Z,86.47
2018-12-17T13:14:29.568Z,86.58
2018-12-17T13:15:29.556Z,86.68
2018-12-17T13:16:29.544Z,86.68
2018-12-17T13:17:29.547Z,86.99
2018-12-17T13:18:29.524Z,86.99
2018-12-17T13:19:29.512Z,86.89
2018-12-17T13:20:29.500Z,86.99
2018-12-17T13:21:29.486Z,88.07
2018-12-17T13:22:29.494Z,87.30
2018-12-17T13:23:29.465Z,87.41
2018-12-17T13:24:29.452Z,87.72
2018-12-17T13:25:29.445Z,87.51
2018-12-17T13:26:29.432Z,87.76
2018-12-17T13:27:29.434Z,87.30
2018-12-17T13:28:29.411Z,87.41
2018-12-17T13:29:29.400Z,87.82
2018-12-17T13:30:29.392Z,87.97
2018-12-17T13:31:29.375Z,88.07
2018-12-17T13:32:29.381Z,87.97
2018-12-17T13:33:29.348Z,87.72
2018-12-17T13:34:29.339Z,87.76
2018-12-17T13:35:29.641Z,87.72
2018-12-17T13:36:30.218Z,87.45
2018-12-17T13:37:29.326Z,87.51
2018-12-17T13:38:29.291Z,87.30
2018-12-17T13:39:29.282Z,87.82
2018-12-17T13:40:29.271Z,86.99
2018-12-17T13:41:29.260Z,86.89
2018-12-17T13:42:31.525Z,86.99
2018-12-17T13:43:29.235Z,86.89
2018-12-17T13:44:29.226Z,85.96
2018-12-17T13:45:29.210Z,86.27
2018-12-17T13:46:29.207Z,86.07
2018-12-17T13:47:30.084Z,86.58
2018-12-17T13:48:29.185Z,85.75
2018-12-17T13:49:29.170Z,85.96
2018-12-17T13:50:30.479Z,85.86
2018-12-17T13:51:29.147Z,86.17
2018-12-17T13:52:32.197Z,85.86
2018-12-17T13:53:29.131Z,86.07
2018-12-17T13:54:29.107Z,86.02
2018-12-17T13:55:29.099Z,85.82
2018-12-17T13:56:29.108Z,85.82
2018-12-17T13:57:29.091Z,85.96
2018-12-17T13:58:30.555Z,86.37
2018-12-17T13:59:29.563Z,86.33
2018-12-17T14:00:29.047Z,85.86
2018-12-17T14:01:29.034Z,86.23
2018-12-17T14:02:29.038Z,85.71
2018-12-17T14:03:29.010Z,86.02
2018-12-17T14:04:28.997Z,85.71
2018-12-17T14:05:28.995Z,85.71
2018-12-17T14:06:29.027Z,85.50
2018-12-17T14:07:28.965Z,85.61
2018-12-17T14:08:29.100Z,86.13
2018-12-17T14:09:31.226Z,85.61
2018-12-17T14:10:29.044Z,85.82
2018-12-17T14:11:28.920Z,85.92
2018-12-17T14:12:28.923Z,85.71
2018-12-17T14:13:28.896Z,86.07
2018-12-17T14:14:28.886Z,85.96
2018-12-17T14:15:29.119Z,85.82
2018-12-17T14:16:28.863Z,85.75
2018-12-17T14:17:31.042Z,85.86
2018-12-17T14:18:28.841Z,85.96
2018-12-17T14:19:28.829Z,85.55
2018-12-17T14:20:29.990Z,85.55
2018-12-17T14:21:28.951Z,85.44
2018-12-17T14:22:28.812Z,86.07
2018-12-17T14:23:28.797Z,85.96
2018-12-17T14:24:28.769Z,86.07
2018-12-17T14:25:28.757Z,85.86
2018-12-17T14:26:28.745Z,85.96
2018-12-17T14:27:28.756Z,85.86
2018-12-17T14:28:28.739Z,86.21
2018-12-17T14:29:28.715Z,86.17
2018-12-17T14:30:28.697Z,86.52
2018-12-17T14:31:29.064Z,86.21
2018-12-17T14:32:28.681Z,86.62
2018-12-17T14:33:28.684Z,86.52
2018-12-17T14:34:28.656Z,86.72
2018-12-17T14:35:28.650Z,86.62
2018-12-17T14:36:28.634Z,86.72
2018-12-17T14:37:28.622Z,86.52
2018-12-17T14:38:28.624Z,86.41
2018-12-17T14:39:28.596Z,86.41
2018-12-17T14:40:28.588Z,86.72
2018-12-17T14:41:28.583Z,86.93
2018-12-17T14:42:28.575Z,87.07
2018-12-17T14:43:28.565Z,86.97
2018-12-17T14:44:28.542Z,86.97
2018-12-17T14:45:28.532Z,86.97
2018-12-17T14:46:28.516Z,86.87
2018-12-17T14:47:28.510Z,86.97
2018-12-17T14:48:28.510Z,86.87
2018-12-17T14:49:28.489Z,86.76
2018-12-17T14:50:28.477Z,86.76
2018-12-17T14:51:28.466Z,87.07
2018-12-17T14:52:28.454Z,86.76
2018-12-17T14:53:28.454Z,86.45
2018-12-17T14:54:28.430Z,86.66
2018-12-17T14:55:28.499Z,86.55
2018-12-17T14:56:28.406Z,86.55
2018-12-17T14:57:28.399Z,86.87
2018-12-17T14:58:28.404Z,86.35
2018-12-17T14:59:28.376Z,86.76
2018-12-17T15:00:28.364Z,86.55
2018-12-17T15:01:28.351Z,86.66
2018-12-17T15:02:28.346Z,86.76
2018-12-17T15:03:28.335Z,86.45
2018-12-17T15:04:28.418Z,86.87
2018-12-17T15:05:28.307Z,87.07
2018-12-17T15:06:28.294Z,86.87
2018-12-17T15:07:29.760Z,86.87
2018-12-17T15:08:28.280Z,87.07
2018-12-17T15:09:28.264Z,86.97
2018-12-17T15:10:28.249Z,87.80
2018-12-17T15:11:28.231Z,88.01
2018-12-17T15:12:28.228Z,88.11
2018-12-17T15:13:28.232Z,87.28
2018-12-17T15:14:28.205Z,87.04
2018-12-17T15:15:28.193Z,86.62
2018-12-17T15:16:28.183Z,86.21
2018-12-17T15:17:28.172Z,86.62
2018-12-17T15:18:28.173Z,86.62
2018-12-17T15:19:28.150Z,86.41
2018-12-17T15:20:28.137Z,86.41
2018-12-17T15:21:28.125Z,86.10
2018-12-17T15:22:28.114Z,86.62
2018-12-17T15:23:28.118Z,86.10
2018-12-17T15:24:28.093Z,86.10
2018-12-17T15:25:28.100Z,86.00
2018-12-17T15:26:28.070Z,85.89
2018-12-17T15:27:28.134Z,86.10
2018-12-17T15:28:28.058Z,85.69
2018-12-17T15:29:28.058Z,86.07
2018-12-17T15:30:30.070Z,86.10
2018-12-17T15:31:28.012Z,86.07
2018-12-17T15:32:28.004Z,86.07
2018-12-17T15:33:27.997Z,85.69
2018-12-17T15:34:27.980Z,85.86
2018-12-17T15:35:27.967Z,86.10
2018-12-17T15:36:27.955Z,86.10
2018-12-17T15:37:27.944Z,86.00
2018-12-17T15:38:27.946Z,86.21
2018-12-17T15:39:27.922Z,86.21
2018-12-17T15:40:27.911Z,86.31
2018-12-17T15:41:27.899Z,86.00
2018-12-17T15:42:27.885Z,86.10
2018-12-17T15:43:27.888Z,86.31
2018-12-17T15:44:28.913Z,86.31
2018-12-17T15:45:27.850Z,86.21
2018-12-17T15:46:27.839Z,86.52
2018-12-17T15:47:27.831Z,86.41
2018-12-17T15:48:27.822Z,86.31
2018-12-17T15:49:27.804Z,86.41
2018-12-17T15:50:27.794Z,86.31
2018-12-17T15:51:27.780Z,86.52
2018-12-17T15:52:27.770Z,86.93
2018-12-17T15:53:27.775Z,86.72
2018-12-17T15:54:27.748Z,86.72
2018-12-17T15:55:27.738Z,86.83
2018-12-17T15:56:27.726Z,86.93
2018-12-17T15:57:27.713Z,87.14
2018-12-17T15:58:27.714Z,87.76
2018-12-17T15:59:27.691Z,87.49
2018-12-17T16:00:27.680Z,88.01
2018-12-17T16:01:27.672Z,87.49
2018-12-17T16:02:27.658Z,87.70
2018-12-17T16:03:27.722Z,87.66
2018-12-17T16:04:27.634Z,87.90
2018-12-17T16:05:27.623Z,88.21
2018-12-17T16:06:27.611Z,88.21
2018-12-17T16:07:27.586Z,88.01
2018-12-17T16:08:27.605Z,88.21
2018-12-17T16:09:27.581Z,88.21
2018-12-17T16:10:27.565Z,88.21
2018-12-17T16:11:27.555Z,88.42
2018-12-17T16:12:27.552Z,88.21
2018-12-17T16:13:27.543Z,88.42
2018-12-17T16:14:27.520Z,88.53
2018-12-17T16:15:27.521Z,88.32
2018-12-17T16:16:27.500Z,88.26
2018-12-17T16:17:27.487Z,88.84
2018-12-17T16:18:27.492Z,88.78
2018-12-17T16:19:27.464Z,88.53
2018-12-17T16:20:27.455Z,89.15
2018-12-17T16:21:27.446Z,88.94
2018-12-17T16:22:27.431Z,89.15
2018-12-17T16:23:27.430Z,88.84
2018-12-17T16:24:27.408Z,89.25
2018-12-17T16:25:27.395Z,89.25
2018-12-17T16:26:27.387Z,89.46
2018-12-17T16:27:27.378Z,89.25
2018-12-17T16:28:27.375Z,89.25
2018-12-17T16:29:27.351Z,88.94
2018-12-17T16:30:27.340Z,88.73
2018-12-17T16:31:27.328Z,88.63
2018-12-17T16:32:27.316Z,88.32
2018-12-17T16:33:30.067Z,88.94
2018-12-17T16:34:27.289Z,88.32
2018-12-17T16:35:27.287Z,88.73
2018-12-17T16:36:27.271Z,88.42
2018-12-17T16:37:27.265Z,88.84
2018-12-17T16:38:27.249Z,88.94
2018-12-17T16:39:27.253Z,88.53
2018-12-17T16:40:27.225Z,88.73
2018-12-17T16:41:27.214Z,88.32
2018-12-17T16:42:27.200Z,88.78
2018-12-17T16:43:27.193Z,88.73
2018-12-17T16:44:27.198Z,88.73
2018-12-17T16:45:27.169Z,88.84
2018-12-17T16:46:27.154Z,88.53
2018-12-17T16:47:27.142Z,88.88
2018-12-17T16:48:27.135Z,88.57
2018-12-17T16:49:27.132Z,88.46
2018-12-17T16:50:27.108Z,88.63
2018-12-17T16:51:27.099Z,88.46
2018-12-17T16:52:27.090Z,88.53
2018-12-17T16:53:27.077Z,88.36
2018-12-17T16:54:27.081Z,88.57
2018-12-17T16:55:27.055Z,88.46
2018-12-17T16:56:27.047Z,87.84
2018-12-17T16:57:27.032Z,88.36
2018-12-17T16:58:27.018Z,88.01
2018-12-17T16:59:27.024Z,88.01
2018-12-17T17:00:26.996Z,88.42
2018-12-17T17:01:27.000Z,88.32
2018-12-17T17:02:26.983Z,88.53
2018-12-17T17:03:26.967Z,88.11
2018-12-17T17:04:26.965Z,87.80
2018-12-17T17:05:26.939Z,88.01
2018-12-17T17:06:26.929Z,88.05
2018-12-17T17:07:26.913Z,88.42
2018-12-17T17:08:26.907Z,87.59
2018-12-17T17:09:26.905Z,87.59
2018-12-17T17:10:26.883Z,88.01
2018-12-17T17:11:26.876Z,87.70
2018-12-17T17:12:26.862Z,87.38
2018-12-17T17:13:26.850Z,87.38
2018-12-17T17:14:26.851Z,87.90
2018-12-17T17:15:26.826Z,87.90
2018-12-17T17:16:26.815Z,88.01
2018-12-17T17:17:26.804Z,87.90
2018-12-17T17:18:26.794Z,88.11
2018-12-17T17:19:26.792Z,86.97
2018-12-17T17:20:26.769Z,87.07
2018-12-17T17:21:26.845Z,86.76
2018-12-17T17:22:26.887Z,86.97
2018-12-17T17:23:26.736Z,86.97
2018-12-17T17:24:26.739Z,87.07
2018-12-17T17:25:26.715Z,86.87
2018-12-17T17:26:27.877Z,86.97
2018-12-17T17:27:28.706Z,86.87
2018-12-17T17:28:26.677Z,86.66
2018-12-17T17:29:26.886Z,86.55
2018-12-17T17:30:26.661Z,86.97
2018-12-17T17:31:26.650Z,86.87
2018-12-17T17:32:26.635Z,87.18
2018-12-17T17:33:26.630Z,87.01
2018-12-17T17:34:28.171Z,87.22
2018-12-17T17:35:26.598Z,87.26
2018-12-17T17:36:26.590Z,87.26
2018-12-17T17:37:26.567Z,87.63
2018-12-17T17:38:26.568Z,87.99
2018-12-17T17:39:26.568Z,88.20
2018-12-17T17:40:26.545Z,88.54
2018-12-17T17:41:26.547Z,88.23
2018-12-17T17:42:26.522Z,88.34
2018-12-17T17:43:26.511Z,88.07
2018-12-17T17:44:26.510Z,88.59
2018-12-17T17:45:26.489Z,88.69
2018-12-17T17:46:26.477Z,88.17
2018-12-17T17:47:26.872Z,89.00
2018-12-17T17:48:26.452Z,89.04
2018-12-17T17:49:26.458Z,88.73
2018-12-17T17:50:26.432Z,89.77
2018-12-17T17:51:26.420Z,91.02
2018-12-17T17:52:26.408Z,91.16